Time;durP1;ratioP1;P1;durP2;ratioP2;P2;SDS_P1;SDS_P2;PMS_P1;PMS_P2;Temp;Humidity;BMP_temperature;BMP_pressure;BME280_temperature;BME280_humidity;BME280_pressure;Samples;Min_cycle;Max_cycle;Signal;HPM_P1;HPM_P2
2022/07/02 00:00:44;;;;;;;1.17;0.80;;;26.90;48.60;;;;;;5012827;28;20045;-63
2022/07/02 00:03:13;;;;;;;0.75;0.65;;;26.90;48.60;;;;;;5012390;28;20030;-63
2022/07/02 00:05:47;;;;;;;0.60;0.60;;;26.90;48.60;;;;;;5008987;28;20388;-63
2022/07/02 00:08:13;;;;;;;0.77;0.60;;;26.80;48.60;;;;;;5008162;28;20079;-63
2022/07/02 00:10:40;;;;;;;0.85;0.60;;;26.80;48.60;;;;;;5011137;28;20033;-63
2022/07/02 00:13:06;;;;;;;1.58;0.80;;;26.80;48.60;;;;;;5011477;28;20488;-63
2022/07/02 00:15:33;;;;;;;0.95;0.70;;;26.80;48.60;;;;;;5013323;28;20029;-64
2022/07/02 00:17:59;;;;;;;1.02;0.70;;;26.80;48.70;;;;;;5010208;28;20102;-63
2022/07/02 00:20:25;;;;;;;1.42;0.60;;;26.80;48.70;;;;;;5009913;28;20038;-63
2022/07/02 00:22:53;;;;;;;1.13;0.70;;;26.70;48.70;;;;;;5013057;28;20041;-63
2022/07/02 00:25:19;;;;;;;0.60;0.60;;;26.70;48.80;;;;;;5009239;28;20486;-63
2022/07/02 00:27:45;;;;;;;0.60;0.60;;;26.70;48.80;;;;;;5010660;28;20035;-63
2022/07/02 00:30:14;;;;;;;0.80;0.60;;;26.70;48.70;;;;;;5011606;28;20021;-64
2022/07/02 00:32:41;;;;;;;1.83;0.70;;;26.70;48.80;;;;;;5015824;28;20517;-61
2022/07/02 00:35:09;;;;;;;0.65;0.60;;;26.70;48.80;;;;;;5013986;28;20112;-63
2022/07/02 00:37:37;;;;;;;0.55;0.55;;;26.70;48.80;;;;;;5012251;28;20029;-62
2022/07/02 00:40:04;;;;;;;0.63;0.60;;;26.70;48.90;;;;;;5016773;28;20126;-64
2022/07/02 00:42:31;;;;;;;0.93;0.70;;;26.60;48.80;;;;;;5016785;28;20826;-63
2022/07/02 00:44:58;;;;;;;1.23;0.63;;;26.70;48.90;;;;;;5018749;28;20040;-63
2022/07/02 00:47:25;;;;;;;0.50;0.50;;;26.60;48.80;;;;;;5014166;28;20044;-63
2022/07/02 00:49:51;;;;;;;0.63;0.60;;;26.60;48.90;;;;;;5014708;28;20378;-64
2022/07/02 00:52:18;;;;;;;0.73;0.55;;;26.60;48.90;;;;;;5010489;28;20033;-63
2022/07/02 00:54:44;;;;;;;0.98;0.63;;;26.60;48.90;;;;;;5017078;28;20052;-64
2022/07/02 00:57:11;;;;;;;1.38;0.60;;;26.60;48.90;;;;;;5011275;28;20030;-62
2022/07/02 00:59:37;;;;;;;0.98;0.70;;;26.60;48.90;;;;;;5016268;28;20108;-63
2022/07/02 01:02:06;;;;;;;0.95;0.60;;;26.50;48.90;;;;;;5013230;28;20061;-64
2022/07/02 01:04:33;;;;;;;1.20;0.80;;;26.50;48.90;;;;;;5016852;28;20100;-63
2022/07/02 01:07:02;;;;;;;0.88;0.60;;;26.50;49.00;;;;;;5013849;28;20033;-64
2022/07/02 01:12:16;;;;;;;0.85;0.60;;;26.50;49.00;;;;;;5011997;28;20048;-63
2022/07/02 01:14:43;;;;;;;0.57;0.57;;;26.50;49.00;;;;;;5014759;28;20100;-62
2022/07/02 01:17:09;;;;;;;1.05;0.68;;;26.50;49.00;;;;;;5014141;28;20046;-64
2022/07/02 01:19:35;;;;;;;1.15;0.75;;;26.50;49.10;;;;;;5013679;28;20045;-63
2022/07/02 01:22:17;;;;;;;0.50;0.50;;;26.50;49.10;;;;;;5012825;28;20034;-63
2022/07/02 01:24:46;;;;;;;0.63;0.50;;;26.50;49.10;;;;;;5016124;28;20543;-63
2022/07/02 01:27:12;;;;;;;0.70;0.50;;;26.50;49.10;;;;;;5013496;28;20392;-63
2022/07/02 01:29:37;;;;;;;0.85;0.60;;;26.40;49.00;;;;;;5015360;28;20038;-63
2022/07/02 01:32:04;;;;;;;0.70;0.52;;;26.40;49.10;;;;;;5013318;28;20038;-64
2022/07/02 01:34:35;;;;;;;0.60;0.50;;;26.40;49.10;;;;;;5014203;28;20056;-60
2022/07/02 01:37:01;;;;;;;1.35;0.60;;;26.40;49.10;;;;;;5012558;28;20108;-63
2022/07/02 01:39:27;;;;;;;0.75;0.50;;;26.40;49.10;;;;;;5010713;28;20128;-63
2022/07/02 01:41:53;;;;;;;0.60;0.55;;;26.40;49.20;;;;;;5013427;28;20034;-63
2022/07/02 01:44:18;;;;;;;0.73;0.52;;;26.30;49.10;;;;;;5014379;28;20505;-63
2022/07/02 01:46:45;;;;;;;0.52;0.50;;;26.40;49.10;;;;;;5012909;28;20728;-61
2022/07/02 01:49:11;;;;;;;0.77;0.50;;;26.30;49.10;;;;;;5009787;28;20052;-64
2022/07/02 01:51:37;;;;;;;0.40;0.40;;;26.30;49.10;;;;;;5009935;28;20036;-64
2022/07/02 01:54:07;;;;;;;1.13;0.60;;;26.40;49.20;;;;;;5014899;28;20137;-63
2022/07/02 01:56:33;;;;;;;1.00;0.60;;;26.30;49.20;;;;;;5012045;28;20037;-63
2022/07/02 01:58:59;;;;;;;0.55;0.50;;;26.30;49.20;;;;;;5012353;28;20025;-64
2022/07/02 02:01:25;;;;;;;0.95;0.52;;;26.30;49.20;;;;;;5014694;28;20072;-63
2022/07/02 02:03:51;;;;;;;0.47;0.47;;;26.30;49.20;;;;;;5011632;28;20033;-64
2022/07/02 02:06:16;;;;;;;0.88;0.70;;;26.30;49.20;;;;;;5012922;28;20038;-63
2022/07/02 02:08:42;;;;;;;0.65;0.50;;;26.20;49.20;;;;;;5010713;28;20035;-63
2022/07/02 02:11:08;;;;;;;0.63;0.50;;;26.30;49.30;;;;;;5014070;28;20099;-63
2022/07/02 02:13:33;;;;;;;0.77;0.50;;;26.20;49.20;;;;;;5012577;28;20450;-63
2022/07/02 02:15:59;;;;;;;1.02;0.50;;;26.30;49.30;;;;;;5013362;28;20044;-61
2022/07/02 02:18:24;;;;;;;0.75;0.60;;;26.20;49.20;;;;;;5010894;28;20033;-63
2022/07/02 02:20:50;;;;;;;0.70;0.70;;;26.20;49.20;;;;;;5013488;28;20033;-63
2022/07/02 02:23:15;;;;;;;0.80;0.50;;;26.20;49.30;;;;;;5013327;28;20037;-59
2022/07/02 02:25:41;;;;;;;0.85;0.63;;;26.20;49.80;;;;;;5012322;28;20060;-63
2022/07/02 02:28:07;;;;;;;0.40;0.40;;;26.20;49.30;;;;;;5011063;28;20029;-61
2022/07/02 02:30:32;;;;;;;0.60;0.50;;;26.20;49.30;;;;;;5014286;28;20098;-61
2022/07/02 02:32:58;;;;;;;0.93;0.60;;;26.20;49.40;;;;;;5014101;28;20025;-63
2022/07/02 02:35:25;;;;;;;0.50;0.50;;;26.20;49.30;;;;;;5015290;28;20124;-63
2022/07/02 02:37:50;;;;;;;0.70;0.50;;;26.20;49.40;;;;;;5009507;28;20144;-63
2022/07/02 02:40:16;;;;;;;0.50;0.43;;;26.20;49.40;;;;;;5012324;28;20499;-63
2022/07/02 02:42:41;;;;;;;0.55;0.50;;;26.20;49.40;;;;;;5011719;28;20017;-63
2022/07/02 02:45:08;;;;;;;0.55;0.52;;;26.20;49.40;;;;;;5015267;28;20107;-62
2022/07/02 02:47:33;;;;;;;0.50;0.47;;;26.20;49.40;;;;;;5008627;28;20036;-63
2022/07/02 02:49:59;;;;;;;0.77;0.50;;;26.10;49.40;;;;;;5013109;28;20033;-64
2022/07/02 02:52:24;;;;;;;0.43;0.43;;;26.20;49.40;;;;;;5010770;28;20768;-63
2022/07/02 02:54:50;;;;;;;0.47;0.47;;;26.10;49.40;;;;;;5014675;28;20100;-63
2022/07/02 02:57:15;;;;;;;1.35;0.63;;;26.10;49.40;;;;;;5010597;28;20033;-63
2022/07/02 02:59:41;;;;;;;0.70;0.60;;;26.10;49.40;;;;;;5011641;28;20426;-63
2022/07/02 03:02:07;;;;;;;0.40;0.40;;;26.10;49.40;;;;;;5010030;28;20037;-63
2022/07/02 03:04:33;;;;;;;0.70;0.50;;;26.10;49.50;;;;;;5016600;28;20037;-63
2022/07/02 03:06:59;;;;;;;0.80;0.40;;;26.10;49.40;;;;;;5010475;28;20140;-63
2022/07/02 03:09:24;;;;;;;0.60;0.55;;;26.00;49.40;;;;;;5012759;28;20044;-63
2022/07/02 03:11:50;;;;;;;0.40;0.40;;;26.10;49.50;;;;;;5012444;28;20033;-63
2022/07/02 03:14:15;;;;;;;0.40;0.40;;;26.10;49.50;;;;;;5012203;28;20049;-63
2022/07/02 03:16:41;;;;;;;0.50;0.50;;;26.00;49.50;;;;;;5011765;28;20044;-60
2022/07/02 03:19:06;;;;;;;0.50;0.50;;;26.00;49.50;;;;;;5012719;28;20053;-63
2022/07/02 03:21:32;;;;;;;0.40;0.40;;;26.00;49.50;;;;;;5009620;28;20060;-61
2022/07/02 03:23:58;;;;;;;0.50;0.50;;;26.00;49.50;;;;;;5012334;28;20552;-63
2022/07/02 03:26:23;;;;;;;0.60;0.40;;;26.00;49.50;;;;;;5011222;28;20044;-63
2022/07/02 03:28:49;;;;;;;1.00;0.50;;;26.00;49.50;;;;;;5011405;28;20043;-63
2022/07/02 03:31:14;;;;;;;0.68;0.50;;;26.00;50.10;;;;;;5025559;28;20332;-62
2022/07/02 03:33:40;;;;;;;0.40;0.40;;;26.00;49.50;;;;;;5011735;28;20069;-63
2022/07/02 03:36:06;;;;;;;0.45;0.40;;;26.00;49.60;;;;;;5011696;28;20033;-63
2022/07/02 03:38:32;;;;;;;0.43;0.43;;;26.00;49.60;;;;;;5012202;28;20029;-64
2022/07/02 03:40:57;;;;;;;0.50;0.45;;;26.00;49.60;;;;;;5011484;28;20029;-62
2022/07/02 03:43:23;;;;;;;0.50;0.50;;;26.00;49.60;;;;;;5008760;28;20088;-63
2022/07/02 03:45:48;;;;;;;0.45;0.40;;;25.90;49.50;;;;;;5011402;28;20029;-63
2022/07/02 03:48:14;;;;;;;0.45;0.40;;;25.90;50.10;;;;;;5012132;28;20040;-63
2022/07/02 03:50:42;;;;;;;0.45;0.43;;;25.90;49.60;;;;;;5009143;28;20036;-63
2022/07/02 03:53:08;;;;;;;0.40;0.40;;;25.90;49.70;;;;;;5007800;28;20524;-62
2022/07/02 03:55:34;;;;;;;0.30;0.30;;;25.90;49.60;;;;;;5011144;28;20041;-63
2022/07/02 03:57:59;;;;;;;0.50;0.40;;;25.90;49.60;;;;;;5004694;28;20029;-63
2022/07/02 04:00:25;;;;;;;0.50;0.40;;;25.90;49.60;;;;;;5009486;28;20064;-63
2022/07/02 04:02:50;;;;;;;0.50;0.50;;;25.90;49.70;;;;;;5010210;28;20449;-64
2022/07/02 04:05:16;;;;;;;0.40;0.40;;;25.90;49.70;;;;;;5000299;28;20111;-60
2022/07/02 04:07:42;;;;;;;0.40;0.40;;;25.90;49.70;;;;;;5010479;28;20029;-63
2022/07/02 04:10:08;;;;;;;1.20;0.50;;;25.90;49.70;;;;;;5010910;28;20096;-60
2022/07/02 04:12:34;;;;;;;0.57;0.50;;;25.90;49.70;;;;;;5012918;28;20025;-63
2022/07/02 04:15:00;;;;;;;0.40;0.40;;;25.80;49.60;;;;;;5012736;28;20045;-63
2022/07/02 04:17:25;;;;;;;0.47;0.40;;;25.80;49.70;;;;;;5011202;28;20052;-60
2022/07/02 04:19:51;;;;;;;0.50;0.50;;;25.80;49.70;;;;;;5011491;28;20724;-62
2022/07/02 04:22:17;;;;;;;0.38;0.38;;;25.80;49.70;;;;;;5009553;28;20397;-62
2022/07/02 04:24:42;;;;;;;0.55;0.50;;;25.80;49.70;;;;;;5010541;28;20108;-62
2022/07/02 04:27:08;;;;;;;0.50;0.50;;;25.80;49.70;;;;;;5010395;28;20041;-63
2022/07/02 04:29:34;;;;;;;0.30;0.30;;;25.80;49.40;;;;;;5011930;28;20426;-63
2022/07/02 04:32:00;;;;;;;0.50;0.50;;;25.80;49.70;;;;;;5010080;28;20038;-60
2022/07/02 04:34:26;;;;;;;0.68;0.40;;;25.80;49.70;;;;;;5013497;28;20211;-60
2022/07/02 04:36:51;;;;;;;0.40;0.40;;;25.80;49.70;;;;;;5008993;28;20052;-62
2022/07/02 04:39:17;;;;;;;0.40;0.40;;;25.80;49.70;;;;;;5010572;28;21174;-62
2022/07/02 04:41:42;;;;;;;0.40;0.40;;;25.80;49.70;;;;;;5009560;28;20014;-63
2022/07/02 04:44:08;;;;;;;0.40;0.40;;;25.80;49.70;;;;;;5012905;28;20045;-62
2022/07/02 04:46:34;;;;;;;0.50;0.40;;;25.70;49.70;;;;;;5010461;28;20030;-63
2022/07/02 04:48:59;;;;;;;0.43;0.43;;;25.70;49.70;;;;;;5011689;28;21163;-63
2022/07/02 04:51:25;;;;;;;0.60;0.50;;;25.70;49.60;;;;;;5008958;28;20105;-62
2022/07/02 04:53:51;;;;;;;0.52;0.43;;;25.70;49.60;;;;;;5012482;28;20056;-63
2022/07/02 04:56:16;;;;;;;0.80;0.50;;;25.70;49.60;;;;;;5009713;28;20052;-63
2022/07/02 04:58:42;;;;;;;0.50;0.50;;;25.70;49.60;;;;;;5010581;28;20072;-63
2022/07/02 05:01:07;;;;;;;0.50;0.50;;;25.70;49.60;;;;;;5007936;28;20088;-63
2022/07/02 05:03:33;;;;;;;0.98;0.50;;;25.70;49.60;;;;;;5008462;28;20028;-60
2022/07/02 05:05:59;;;;;;;0.50;0.50;;;25.70;49.60;;;;;;5012424;28;20039;-63
2022/07/02 05:08:26;;;;;;;0.30;0.30;;;25.70;49.60;;;;;;5010313;28;20037;-64
2022/07/02 05:10:55;;;;;;;0.32;0.30;;;25.70;49.60;;;;;;5012539;28;20116;-63
2022/07/02 05:13:24;;;;;;;;;;;25.70;49.60;;;;;;5009930;28;20132;-63
2022/07/02 05:15:53;;;;;;;0.47;0.47;;;25.70;49.60;;;;;;5012075;28;19920;-64
2022/07/02 05:18:21;;;;;;;;;;;25.70;49.60;;;;;;5014775;28;21397;-63
2022/07/02 05:20:48;;;;;;;0.50;0.47;;;25.70;49.60;;;;;;5015205;28;19917;-63
2022/07/02 05:23:13;;;;;;;0.47;0.40;;;25.70;49.60;;;;;;5016460;28;20653;-63
2022/07/02 05:25:39;;;;;;;0.38;0.30;;;25.70;49.60;;;;;;5012356;28;20033;-63
2022/07/02 05:28:05;;;;;;;0.82;0.50;;;25.70;49.60;;;;;;5017447;28;20377;-62
2022/07/02 05:30:30;;;;;;;0.35;0.35;;;25.60;49.60;;;;;;5012477;28;20052;-63
2022/07/02 05:32:56;;;;;;;0.40;0.30;;;25.60;49.60;;;;;;5013924;28;20049;-64
2022/07/02 05:35:21;;;;;;;0.88;0.32;;;25.60;49.60;;;;;;5014417;28;20033;-64
2022/07/02 05:37:47;;;;;;;0.30;0.30;;;25.60;49.60;;;;;;5004563;28;20026;-63
2022/07/02 05:40:13;;;;;;;0.40;0.40;;;25.60;49.60;;;;;;5009288;28;20032;-62
2022/07/02 05:42:38;;;;;;;0.40;0.40;;;25.60;49.60;;;;;;5014606;28;20132;-64
2022/07/02 05:45:04;;;;;;;0.50;0.40;;;25.60;49.60;;;;;;5015448;28;21381;-64
2022/07/02 05:47:30;;;;;;;0.30;0.30;;;25.50;49.60;;;;;;5011320;28;20021;-63
2022/07/02 05:49:56;;;;;;;1.55;0.50;;;25.60;49.70;;;;;;5011748;28;20040;-63
2022/07/02 05:52:21;;;;;;;0.60;0.60;;;25.60;49.70;;;;;;5012283;28;20103;-63
2022/07/02 05:54:47;;;;;;;0.40;0.40;;;25.60;49.70;;;;;;5015213;28;20550;-63
2022/07/02 05:57:13;;;;;;;0.65;0.43;;;25.60;49.30;;;;;;5012355;28;20488;-64
2022/07/02 05:59:38;;;;;;;0.65;0.60;;;25.60;48.60;;;;;;5012878;28;20133;-64
2022/07/02 06:02:04;;;;;;;0.80;0.60;;;25.50;47.90;;;;;;5013402;28;20090;-62
2022/07/02 06:04:31;;;;;;;1.30;0.63;;;25.50;48.20;;;;;;5013673;28;20151;-64
2022/07/02 06:09:42;;;;;;;0.88;0.60;;;25.40;47.20;;;;;;5011772;28;20059;-62
2022/07/02 06:12:08;;;;;;;1.73;0.80;;;25.40;47.00;;;;;;5007391;28;20458;-62
2022/07/02 06:14:33;;;;;;;0.80;0.80;;;25.40;47.00;;;;;;5008782;28;20022;-63
2022/07/02 06:16:59;;;;;;;0.65;0.60;;;25.40;46.90;;;;;;5010726;28;20044;-63
2022/07/02 06:19:25;;;;;;;1.20;0.70;;;25.30;46.90;;;;;;5014162;28;20419;-62
2022/07/02 06:21:51;;;;;;;0.73;0.70;;;25.30;46.80;;;;;;5009633;28;20105;-63
2022/07/02 06:24:17;;;;;;;0.80;0.60;;;25.30;46.80;;;;;;5009662;28;20022;-63
2022/07/02 06:26:43;;;;;;;0.90;0.80;;;25.20;46.70;;;;;;5013600;28;20117;-63
2022/07/02 06:29:08;;;;;;;0.95;0.75;;;25.20;46.80;;;;;;5006354;28;20052;-63
2022/07/02 06:31:34;;;;;;;0.80;0.70;;;25.20;46.90;;;;;;5011205;28;20482;-63
2022/07/02 06:34:00;;;;;;;0.70;0.70;;;25.20;47.00;;;;;;5011016;28;20040;-62
2022/07/02 06:36:26;;;;;;;0.93;0.70;;;25.20;47.00;;;;;;5013054;28;20025;-63
2022/07/02 06:38:52;;;;;;;0.60;0.60;;;25.20;47.10;;;;;;5007406;28;20041;-63
2022/07/02 06:44:04;;;;;;;1.30;0.70;;;25.20;47.30;;;;;;5016020;28;20045;-62
2022/07/02 06:46:29;;;;;;;1.65;0.80;;;25.20;47.80;;;;;;5013088;28;20045;-63
2022/07/02 06:48:55;;;;;;;0.95;0.80;;;25.20;48.30;;;;;;5013147;28;20445;-63
2022/07/02 06:51:20;;;;;;;1.15;0.80;;;25.20;48.60;;;;;;5010900;28;20041;-61
2022/07/02 06:53:46;;;;;;;0.75;0.60;;;25.20;48.70;;;;;;5013181;28;20491;-63
2022/07/02 06:56:12;;;;;;;1.13;0.70;;;25.20;48.60;;;;;;5013261;28;20401;-63
2022/07/02 06:58:37;;;;;;;0.73;0.70;;;25.20;48.50;;;;;;5014209;28;20512;-61
2022/07/02 07:01:03;;;;;;;1.10;0.70;;;25.20;48.50;;;;;;5013351;28;21723;-63
2022/07/02 07:03:29;;;;;;;1.08;0.80;;;25.20;48.40;;;;;;5012989;28;20026;-63
2022/07/02 07:05:54;;;;;;;1.23;0.70;;;25.20;48.40;;;;;;5013365;28;20128;-62
2022/07/02 07:08:20;;;;;;;0.88;0.80;;;25.10;48.40;;;;;;5009947;28;20029;-62
2022/07/02 07:10:45;;;;;;;1.02;0.80;;;25.10;48.40;;;;;;5010142;28;20029;-61
2022/07/02 07:13:11;;;;;;;0.77;0.70;;;25.10;48.40;;;;;;5012373;28;20067;-61
2022/07/02 07:15:37;;;;;;;1.52;0.80;;;25.10;48.40;;;;;;5014601;28;21069;-60
2022/07/02 07:18:02;;;;;;;0.93;0.70;;;25.10;48.40;;;;;;5011040;28;20021;-63
2022/07/02 07:20:29;;;;;;;1.00;0.60;;;25.20;48.50;;;;;;5012316;28;20071;-62
2022/07/02 07:22:56;;;;;;;0.88;0.68;;;25.10;48.40;;;;;;5010665;28;20390;-63
2022/07/02 07:25:23;;;;;;;1.05;0.70;;;25.10;48.50;;;;;;5012477;28;20030;-60
2022/07/02 07:27:50;;;;;;;1.60;0.80;;;25.10;48.40;;;;;;5028613;28;20041;-63
2022/07/02 07:30:16;;;;;;;0.85;0.80;;;25.10;48.40;;;;;;5009528;28;20464;-61
2022/07/02 07:32:42;;;;;;;0.70;0.60;;;25.10;48.40;;;;;;5010717;28;20028;-62
2022/07/02 07:35:08;;;;;;;1.00;0.90;;;25.10;48.40;;;;;;5012598;28;20043;-62
2022/07/02 07:37:35;;;;;;;1.35;0.90;;;25.10;48.40;;;;;;5010601;28;20535;-63
2022/07/02 07:40:02;;;;;;;0.77;0.70;;;25.10;48.50;;;;;;5009202;28;20353;-61
2022/07/02 07:42:28;;;;;;;1.98;0.90;;;25.10;48.50;;;;;;5009065;28;20090;-63
2022/07/02 07:44:54;;;;;;;1.20;0.80;;;25.10;48.50;;;;;;5012174;28;20037;-63
2022/07/02 07:47:19;;;;;;;1.55;1.17;;;25.10;48.50;;;;;;5008097;28;20033;-62
2022/07/02 07:49:45;;;;;;;1.90;1.30;;;25.10;48.50;;;;;;5010490;28;20063;-63
2022/07/02 07:52:11;;;;;;;2.03;1.35;;;25.00;48.40;;;;;;5008247;28;20041;-63
2022/07/02 07:54:37;;;;;;;2.30;1.50;;;25.00;48.20;;;;;;5008209;28;20041;-61
2022/07/02 07:57:03;;;;;;;2.15;1.63;;;24.90;48.50;;;;;;5010000;28;20072;-62
2022/07/02 07:59:29;;;;;;;2.50;1.85;;;24.90;48.60;;;;;;5006840;28;20108;-63
2022/07/02 08:01:55;;;;;;;2.60;1.80;;;24.90;48.80;;;;;;5007706;28;20627;-63
2022/07/02 08:04:20;;;;;;;2.45;1.60;;;24.90;48.80;;;;;;5008171;28;20049;-63
2022/07/02 08:06:46;;;;;;;2.28;1.70;;;24.80;49.00;;;;;;5004759;28;20096;-63
2022/07/02 08:09:12;;;;;;;1.67;1.30;;;24.80;49.00;;;;;;5005775;28;20027;-62
2022/07/02 08:11:38;;;;;;;2.10;1.30;;;24.80;49.10;;;;;;5005711;28;20052;-61
2022/07/02 08:14:04;;;;;;;1.63;1.35;;;24.80;49.20;;;;;;5009965;28;20088;-62
2022/07/02 08:16:31;;;;;;;1.42;1.00;;;24.70;49.10;;;;;;5009572;28;20037;-63
2022/07/02 08:18:56;;;;;;;1.17;0.98;;;24.80;49.20;;;;;;5011903;28;20041;-60
2022/07/02 08:21:22;;;;;;;1.40;1.10;;;24.80;49.30;;;;;;5008360;28;20045;-63
2022/07/02 08:23:48;;;;;;;0.95;0.82;;;24.80;49.60;;;;;;5006281;28;20496;-62
2022/07/02 08:26:13;;;;;;;0.80;0.80;;;24.70;49.50;;;;;;5002534;28;20037;-63
2022/07/02 08:28:39;;;;;;;1.27;0.90;;;24.80;49.30;;;;;;5007918;28;20545;-63
2022/07/02 08:31:05;;;;;;;0.82;0.70;;;24.70;48.70;;;;;;5001912;28;20258;-63
2022/07/02 08:33:30;;;;;;;1.10;0.63;;;24.70;48.80;;;;;;5006928;28;20116;-63
2022/07/02 08:35:56;;;;;;;0.80;0.65;;;24.70;48.90;;;;;;5004623;28;20044;-63
2022/07/02 08:38:22;;;;;;;1.92;0.70;;;24.70;48.80;;;;;;5006666;28;20042;-62
2022/07/02 08:40:48;;;;;;;2.10;0.80;;;24.70;48.70;;;;;;5004866;28;20493;-62
2022/07/02 08:43:16;;;;;;;0.93;0.70;;;24.70;48.70;;;;;;5007965;28;20485;-62
2022/07/02 08:45:43;;;;;;;1.02;0.70;;;24.70;48.70;;;;;;5011320;28;20049;-62
2022/07/02 08:48:10;;;;;;;0.60;0.60;;;24.70;48.60;;;;;;5009227;28;20034;-63
2022/07/02 08:50:36;;;;;;;0.60;0.60;;;24.60;48.60;;;;;;5006849;28;20107;-63
2022/07/02 08:53:04;;;;;;;1.02;0.70;;;24.70;48.60;;;;;;5013122;28;20056;-62
2022/07/02 08:55:32;;;;;;;0.57;0.50;;;24.70;48.60;;;;;;5013939;28;20112;-63
2022/07/02 08:57:59;;;;;;;1.10;0.70;;;24.60;48.60;;;;;;5013778;28;20144;-62
2022/07/02 09:00:26;;;;;;;1.05;0.70;;;24.70;48.70;;;;;;5014335;28;20045;-63
2022/07/02 09:02:53;;;;;;;1.00;0.60;;;24.70;48.70;;;;;;5016071;28;20346;-62
2022/07/02 09:05:21;;;;;;;1.20;0.60;;;24.70;48.70;;;;;;5013937;28;20097;-62
2022/07/02 09:07:47;;;;;;;1.30;0.70;;;24.70;48.70;;;;;;5011556;28;20826;-64
2022/07/02 09:10:14;;;;;;;1.15;0.65;;;24.70;48.70;;;;;;5008651;28;20044;-61
2022/07/02 09:12:40;;;;;;;1.30;0.70;;;24.70;48.80;;;;;;5012968;28;20140;-63
2022/07/02 09:15:07;;;;;;;0.93;0.60;;;24.70;48.80;;;;;;5015155;28;20429;-63
2022/07/02 09:17:33;;;;;;;1.10;0.70;;;24.60;48.80;;;;;;5013556;28;20115;-62
2022/07/02 09:19:59;;;;;;;0.98;0.70;;;24.70;48.90;;;;;;5012632;28;20065;-62
2022/07/02 09:22:41;;;;;;;0.80;0.60;;;24.70;48.90;;;;;;5008257;28;20054;-63
2022/07/02 09:25:16;;;;;;;0.57;0.57;;;24.70;48.90;;;;;;5004693;28;20335;-63
2022/07/02 09:27:44;;;;;;;0.52;0.50;;;24.70;49.00;;;;;;5009406;28;20138;-63
2022/07/02 09:30:13;;;;;;;1.27;0.70;;;24.70;49.00;;;;;;5004487;28;20056;-64
2022/07/02 09:32:44;;;;;;;0.68;0.52;;;24.70;49.00;;;;;;5009441;28;20061;-61
2022/07/02 09:35:21;;;;;;;0.52;0.50;;;24.70;49.00;;;;;;5008433;28;20796;-63
2022/07/02 09:37:50;;;;;;;1.42;0.75;;;24.70;49.00;;;;;;5007539;28;20025;-63
2022/07/02 09:40:16;;;;;;;0.73;0.60;;;24.70;49.00;;;;;;5010329;28;20041;-62
2022/07/02 09:42:48;;;;;;;1.42;0.63;;;24.70;49.00;;;;;;5010095;28;20047;-63
2022/07/02 09:45:15;;;;;;;0.70;0.60;;;24.70;49.10;;;;;;5011763;28;20029;-62
2022/07/02 09:47:53;;;;;;;0.85;0.70;;;24.70;49.10;;;;;;5009529;28;20612;-63
2022/07/02 09:50:22;;;;;;;0.68;0.65;;;24.70;49.00;;;;;;5010192;28;20734;-61
2022/07/02 09:52:53;;;;;;;0.57;0.55;;;24.70;49.00;;;;;;5008190;28;20589;-64
2022/07/02 09:55:28;;;;;;;1.05;0.70;;;24.70;49.10;;;;;;5010087;28;20109;-62
2022/07/02 09:57:59;;;;;;;0.55;0.50;;;24.70;49.10;;;;;;5009116;28;20364;-63
2022/07/02 10:00:27;;;;;;;0.60;0.50;;;24.70;49.10;;;;;;5008511;28;20061;-63
2022/07/02 10:02:55;;;;;;;1.10;0.60;;;24.70;49.10;;;;;;5010458;28;20037;-63
2022/07/02 10:05:34;;;;;;;0.70;0.60;;;24.70;49.20;;;;;;5005807;28;20050;-63
2022/07/02 10:08:01;;;;;;;0.80;0.50;;;24.80;49.20;;;;;;5005749;28;20037;-63
2022/07/02 10:10:38;;;;;;;0.68;0.55;;;24.80;49.20;;;;;;5007951;28;20069;-63
2022/07/02 10:13:09;;;;;;;0.55;0.55;;;24.80;49.20;;;;;;5009641;28;20025;-64
2022/07/02 10:15:39;;;;;;;0.80;0.60;;;24.70;49.60;;;;;;5008526;28;20453;-64
2022/07/02 10:18:05;;;;;;;0.70;0.60;;;24.70;49.20;;;;;;5012544;28;20040;-63
2022/07/02 10:20:32;;;;;;;1.35;0.60;;;24.70;49.20;;;;;;5012695;28;20801;-63
2022/07/02 10:23:02;;;;;;;0.93;0.65;;;24.70;49.20;;;;;;5015622;28;20087;-63
2022/07/02 10:25:28;;;;;;;0.55;0.50;;;24.70;49.20;;;;;;5013699;28;20123;-63
2022/07/02 10:27:57;;;;;;;1.80;0.60;;;24.80;49.20;;;;;;5017164;28;20076;-61
2022/07/02 10:30:32;;;;;;;0.65;0.50;;;24.70;48.80;;;;;;5012658;28;20068;-63
2022/07/02 10:33:26;;;;;;;0.50;0.50;;;24.70;49.20;;;;;;5010986;28;20112;-64
2022/07/02 10:35:53;;;;;;;0.70;0.60;;;24.80;49.30;;;;;;5007248;28;20021;-64
2022/07/02 10:38:37;;;;;;;0.80;0.60;;;24.80;49.30;;;;;;5011661;28;20059;-63
2022/07/02 10:41:03;;;;;;;0.60;0.60;;;24.70;49.20;;;;;;5017802;28;20017;-62
2022/07/02 10:43:33;;;;;;;0.50;0.50;;;24.80;49.30;;;;;;5017061;28;20969;-60
2022/07/02 10:46:12;;;;;;;0.70;0.70;;;24.70;49.20;;;;;;5012948;28;20107;-63
2022/07/02 10:48:54;;;;;;;0.65;0.60;;;24.80;49.30;;;;;;5017403;28;20035;-64
2022/07/02 10:51:27;;;;;;;0.90;0.60;;;24.80;49.30;;;;;;5013032;28;20144;-63
2022/07/02 10:53:58;;;;;;;0.80;0.50;;;24.70;49.30;;;;;;5017910;28;20040;-63
2022/07/02 10:56:24;;;;;;;0.80;0.70;;;24.80;49.30;;;;;;5030468;28;20041;-63
2022/07/02 10:58:50;;;;;;;1.10;0.68;;;24.80;49.30;;;;;;5014816;28;20033;-60
2022/07/02 11:01:22;;;;;;;0.52;0.50;;;24.80;49.30;;;;;;5015975;28;20367;-63
2022/07/02 11:03:58;;;;;;;0.50;0.50;;;24.70;49.30;;;;;;5020705;28;20044;-63
2022/07/02 11:06:31;;;;;;;0.68;0.50;;;24.80;49.30;;;;;;5015075;28;20079;-64
2022/07/02 11:08:59;;;;;;;0.52;0.40;;;24.70;49.20;;;;;;5014903;28;20237;-64
2022/07/02 11:11:38;;;;;;;0.82;0.45;;;24.80;49.30;;;;;;5016819;28;20553;-64
2022/07/02 11:14:07;;;;;;;0.65;0.52;;;24.80;49.30;;;;;;5016222;28;20025;-63
2022/07/02 11:16:40;;;;;;;0.60;0.60;;;24.80;49.30;;;;;;5012296;28;20077;-63
2022/07/02 11:19:19;;;;;;;0.60;0.50;;;24.80;49.30;;;;;;5014559;28;20903;-63
2022/07/02 11:21:49;;;;;;;1.05;0.65;;;24.80;49.20;;;;;;5015153;28;20040;-62
2022/07/02 11:24:19;;;;;;;0.60;0.50;;;24.80;49.20;;;;;;5015844;28;20382;-60
2022/07/02 11:26:45;;;;;;;0.80;0.52;;;24.80;49.20;;;;;;5016669;28;20111;-63
2022/07/02 11:29:12;;;;;;;0.68;0.47;;;24.80;49.20;;;;;;5018259;28;20041;-62
2022/07/02 11:31:46;;;;;;;0.80;0.52;;;24.80;49.20;;;;;;5013835;28;20057;-63
2022/07/02 11:34:14;;;;;;;0.50;0.50;;;24.80;49.20;;;;;;5007788;28;20820;-63
2022/07/02 11:36:40;;;;;;;0.50;0.50;;;24.80;49.20;;;;;;5008462;28;20057;-63
2022/07/02 11:39:14;;;;;;;0.82;0.60;;;24.80;49.20;;;;;;5006947;28;20572;-62
2022/07/02 11:41:41;;;;;;;0.60;0.60;;;24.80;49.20;;;;;;5011414;28;20029;-63
2022/07/02 11:44:18;;;;;;;1.63;0.50;;;24.80;49.10;;;;;;5012045;28;20061;-63
2022/07/02 11:46:51;;;;;;;0.60;0.60;;;24.80;49.10;;;;;;5013999;28;20032;-61
2022/07/02 11:49:25;;;;;;;0.77;0.60;;;24.80;49.10;;;;;;5011955;28;20056;-61
2022/07/02 11:51:52;;;;;;;0.52;0.50;;;24.80;49.10;;;;;;5010906;28;20070;-63
2022/07/02 11:54:18;;;;;;;0.68;0.60;;;24.80;49.00;;;;;;5008455;28;20029;-62
2022/07/02 11:56:46;;;;;;;0.80;0.57;;;24.80;49.00;;;;;;5013752;28;20163;-63
2022/07/02 11:59:14;;;;;;;0.63;0.60;;;24.80;49.00;;;;;;5012271;28;20152;-63
2022/07/02 12:01:42;;;;;;;0.65;0.60;;;24.80;49.00;;;;;;5009177;28;20504;-64
2022/07/02 12:04:13;;;;;;;0.75;0.55;;;24.80;49.00;;;;;;5008479;28;20176;-64
2022/07/02 12:06:48;;;;;;;0.57;0.50;;;24.80;49.00;;;;;;5011352;28;20023;-63
2022/07/02 12:09:15;;;;;;;0.65;0.47;;;24.80;49.00;;;;;;5008387;28;20025;-63
2022/07/02 12:11:43;;;;;;;0.95;0.60;;;24.80;49.00;;;;;;5011386;28;20033;-64
2022/07/02 12:14:10;;;;;;;0.52;0.52;;;24.80;49.00;;;;;;5010957;28;20026;-63
2022/07/02 12:16:37;;;;;;;0.80;0.50;;;24.90;49.00;;;;;;4997677;28;20544;-63
2022/07/02 12:19:08;;;;;;;0.93;0.50;;;24.80;48.90;;;;;;5012242;28;20037;-64
2022/07/02 12:21:47;;;;;;;0.50;0.50;;;24.80;48.90;;;;;;5008957;28;20069;-64
2022/07/02 12:24:31;;;;;;;0.80;0.52;;;24.90;49.00;;;;;;5008394;28;20029;-63
2022/07/02 12:27:08;;;;;;;0.73;0.57;;;24.90;48.90;;;;;;5007342;28;20033;-64
2022/07/02 12:29:56;;;;;;;0.55;0.52;;;24.90;49.00;;;;;;5015284;28;20029;-62
2022/07/02 12:32:33;;;;;;;0.63;0.40;;;24.90;48.90;;;;;;5018143;28;20029;-64
2022/07/02 12:35:04;;;;;;;1.08;0.50;;;24.90;48.90;;;;;;5017546;28;20934;-63
2022/07/02 12:37:35;;;;;;;0.63;0.50;;;24.90;49.00;;;;;;5012690;28;20025;-61
2022/07/02 12:40:03;;;;;;;0.70;0.50;;;24.90;48.90;;;;;;5016218;28;20572;-65
2022/07/02 12:42:34;;;;;;;1.13;0.60;;;24.90;48.90;;;;;;5016095;28;20034;-64
2022/07/02 12:45:01;;;;;;;0.50;0.50;;;24.90;49.00;;;;;;5016821;28;20908;-63
2022/07/02 12:47:38;;;;;;;0.57;0.52;;;24.90;49.00;;;;;;5019571;28;20095;-63
2022/07/02 12:50:09;;;;;;;0.50;0.50;;;24.90;49.00;;;;;;5018441;28;20127;-59
2022/07/02 12:52:50;;;;;;;0.55;0.52;;;24.90;49.00;;;;;;5016755;28;20477;-64
2022/07/02 12:55:30;;;;;;;0.50;0.47;;;24.90;49.00;;;;;;5016040;28;20066;-63
2022/07/02 12:57:58;;;;;;;0.55;0.50;;;24.90;49.00;;;;;;5020170;28;20041;-65